<?xml version="1.0" encoding="UTF-8"?>
<gpx creator="Wikiloc - https://www.wikiloc.com" version="1.1" xmlns="http://www.topografix.com/GPX/1/1" xmlns:xsi="http://www.w3.org/2001/XMLSchema-instance" xsi:schemaLocation="http://www.topografix.com/GPX/1/1 http://www.topografix.com/GPX/1/1/gpx.xsd">
  <metadata>
    <name>Wikiloc - Itinerario 03 - le Piagge - Scorciatoia</name>
    <author>
      <name>owen782</name>
      <link href="https://www.wikiloc.com/wikiloc/user.do?id=5312202">
        <text>owen782 on Wikiloc</text>
      </link>
    </author>
    <link href="https://www.wikiloc.com/hiking-trails/itinerario-03-le-piagge-scorciatoia-90514870">
      <text>Itinerario 03 - le Piagge - Scorciatoia on Wikiloc</text>
    </link>
    <time>2021-12-10T11:21:59Z</time>
  </metadata>
  <trk>
    <name>Itinerario 03 - le Piagge - Scorciatoia</name>
    <cmt></cmt>
    <desc></desc>
    <trkseg>
      <trkpt lat="43.152152" lon="12.311762">
        <ele>392.069</ele>
        <time>2021-12-10T13:09:42Z</time>
      </trkpt>
      <trkpt lat="43.152192" lon="12.311429">
        <ele>387.504</ele>
        <time>2021-12-10T13:10:22Z</time>
      </trkpt>
      <trkpt lat="43.152257" lon="12.311233">
        <ele>384.424</ele>
        <time>2021-12-10T13:11:02Z</time>
      </trkpt>
      <trkpt lat="43.152444" lon="12.310869">
        <ele>376.208</ele>
        <time>2021-12-10T13:11:42Z</time>
      </trkpt>
      <trkpt lat="43.152566" lon="12.310599">
        <ele>372.245</ele>
        <time>2021-12-10T13:12:22Z</time>
      </trkpt>
      <trkpt lat="43.152762" lon="12.310216">
        <ele>363.316</ele>
        <time>2021-12-10T13:13:02Z</time>
      </trkpt>
      <trkpt lat="43.152892" lon="12.309842">
        <ele>358.651</ele>
        <time>2021-12-10T13:13:42Z</time>
      </trkpt>
      <trkpt lat="43.152902" lon="12.309581">
        <ele>358.617</ele>
        <time>2021-12-10T13:14:22Z</time>
      </trkpt>
      <trkpt lat="43.152958" lon="12.309394">
        <ele>357.210</ele>
        <time>2021-12-10T13:15:02Z</time>
      </trkpt>
      <trkpt lat="43.152930" lon="12.309124">
        <ele>359.884</ele>
        <time>2021-12-10T13:15:42Z</time>
      </trkpt>
      <trkpt lat="43.152920" lon="12.308619">
        <ele>361.983</ele>
        <time>2021-12-10T13:16:22Z</time>
      </trkpt>
      <trkpt lat="43.152920" lon="12.308414">
        <ele>360.166</ele>
        <time>2021-12-10T13:17:02Z</time>
      </trkpt>
      <trkpt lat="43.152827" lon="12.308106">
        <ele>357.834</ele>
        <time>2021-12-10T13:17:42Z</time>
      </trkpt>
      <trkpt lat="43.152780" lon="12.307751">
        <ele>351.655</ele>
        <time>2021-12-10T13:18:22Z</time>
      </trkpt>
      <trkpt lat="43.152696" lon="12.307499">
        <ele>350.610</ele>
        <time>2021-12-10T13:19:02Z</time>
      </trkpt>
      <trkpt lat="43.152612" lon="12.307210">
        <ele>351.708</ele>
        <time>2021-12-10T13:19:42Z</time>
      </trkpt>
      <trkpt lat="43.152584" lon="12.306920">
        <ele>350.062</ele>
        <time>2021-12-10T13:20:22Z</time>
      </trkpt>
      <trkpt lat="43.152547" lon="12.306659">
        <ele>347.713</ele>
        <time>2021-12-10T13:21:02Z</time>
      </trkpt>
      <trkpt lat="43.152554" lon="12.306560">
        <ele>345.738</ele>
        <time>2021-12-10T13:21:42Z</time>
      </trkpt>
    </trkseg>
  </trk></gpx>